sensor_id;sensor_type;location;lat;lon;timestamp;P1;durP1;ratioP1;P2;durP2;ratioP2
47882;SDS011;37739;50.350;7.578;2022-08-05T00:02:20;7.20;;;5.03;;
47882;SDS011;37739;50.350;7.578;2022-08-05T00:04:48;6.50;;;5.80;;
47882;SDS011;37739;50.350;7.578;2022-08-05T00:07:14;7.90;;;5.10;;
47882;SDS011;37739;50.350;7.578;2022-08-05T00:09:41;4.90;;;4.40;;
47882;SDS011;37739;50.350;7.578;2022-08-05T00:12:09;6.40;;;5.30;;
47882;SDS011;37739;50.350;7.578;2022-08-05T00:14:35;6.33;;;4.93;;
47882;SDS011;37739;50.350;7.578;2022-08-05T00:17:00;7.90;;;5.43;;
47882;SDS011;37739;50.350;7.578;2022-08-05T00:19:25;8.10;;;5.60;;
47882;SDS011;37739;50.350;7.578;2022-08-05T00:21:53;6.10;;;5.50;;
47882;SDS011;37739;50.350;7.578;2022-08-05T00:24:20;6.13;;;5.47;;
47882;SDS011;37739;50.350;7.578;2022-08-05T00:26:48;5.73;;;5.23;;
47882;SDS011;37739;50.350;7.578;2022-08-05T00:29:16;5.50;;;4.63;;
47882;SDS011;37739;50.350;7.578;2022-08-05T00:31:42;5.53;;;5.03;;
47882;SDS011;37739;50.350;7.578;2022-08-05T00:34:09;5.60;;;4.60;;
47882;SDS011;37739;50.350;7.578;2022-08-05T00:36:35;6.80;;;4.97;;
47882;SDS011;37739;50.350;7.578;2022-08-05T00:39:00;6.10;;;5.10;;
47882;SDS011;37739;50.350;7.578;2022-08-05T00:41:29;4.70;;;3.70;;
47882;SDS011;37739;50.350;7.578;2022-08-05T00:43:58;9.73;;;7.37;;
47882;SDS011;37739;50.350;7.578;2022-08-05T00:46:24;6.07;;;5.47;;
47882;SDS011;37739;50.350;7.578;2022-08-05T00:48:51;5.73;;;5.00;;
47882;SDS011;37739;50.350;7.578;2022-08-05T00:51:19;7.33;;;6.47;;
47882;SDS011;37739;50.350;7.578;2022-08-05T00:53:45;6.33;;;5.77;;
47882;SDS011;37739;50.350;7.578;2022-08-05T00:56:11;6.53;;;5.90;;
47882;SDS011;37739;50.350;7.578;2022-08-05T00:58:37;6.87;;;5.80;;
47882;SDS011;37739;50.350;7.578;2022-08-05T01:01:03;5.87;;;4.90;;
47882;SDS011;37739;50.350;7.578;2022-08-05T01:03:33;5.60;;;4.97;;
47882;SDS011;37739;50.350;7.578;2022-08-05T01:06:01;6.80;;;6.20;;
47882;SDS011;37739;50.350;7.578;2022-08-05T01:08:27;6.40;;;5.83;;
47882;SDS011;37739;50.350;7.578;2022-08-05T01:10:56;5.77;;;5.30;;
47882;SDS011;37739;50.350;7.578;2022-08-05T01:15:58;5.73;;;5.20;;
47882;SDS011;37739;50.350;7.578;2022-08-05T01:18:30;6.23;;;5.70;;
47882;SDS011;37739;50.350;7.578;2022-08-05T01:23:54;5.77;;;5.20;;
47882;SDS011;37739;50.350;7.578;2022-08-05T01:26:36;6.83;;;6.00;;
47882;SDS011;37739;50.350;7.578;2022-08-05T01:29:10;5.10;;;4.60;;
47882;SDS011;37739;50.350;7.578;2022-08-05T01:31:45;6.50;;;5.73;;
47882;SDS011;37739;50.350;7.578;2022-08-05T01:36:49;5.77;;;4.90;;
47882;SDS011;37739;50.350;7.578;2022-08-05T01:39:22;6.13;;;5.50;;
47882;SDS011;37739;50.350;7.578;2022-08-05T01:41:51;5.93;;;5.33;;
47882;SDS011;37739;50.350;7.578;2022-08-05T01:44:19;5.83;;;5.20;;
47882;SDS011;37739;50.350;7.578;2022-08-05T01:46:47;8.53;;;5.60;;
47882;SDS011;37739;50.350;7.578;2022-08-05T01:49:17;7.63;;;6.67;;
47882;SDS011;37739;50.350;7.578;2022-08-05T01:51:46;6.20;;;5.60;;
47882;SDS011;37739;50.350;7.578;2022-08-05T01:54:14;6.73;;;6.10;;
47882;SDS011;37739;50.350;7.578;2022-08-05T01:56:43;5.90;;;5.40;;
47882;SDS011;37739;50.350;7.578;2022-08-05T01:59:13;6.90;;;6.17;;
47882;SDS011;37739;50.350;7.578;2022-08-05T02:01:40;9.50;;;5.73;;
47882;SDS011;37739;50.350;7.578;2022-08-05T02:04:07;5.50;;;5.00;;
47882;SDS011;37739;50.350;7.578;2022-08-05T02:06:37;5.63;;;5.13;;
47882;SDS011;37739;50.350;7.578;2022-08-05T02:09:05;7.20;;;6.50;;
47882;SDS011;37739;50.350;7.578;2022-08-05T02:11:36;6.17;;;5.43;;
47882;SDS011;37739;50.350;7.578;2022-08-05T02:14:27;6.07;;;5.60;;
47882;SDS011;37739;50.350;7.578;2022-08-05T02:17:00;5.87;;;5.30;;
47882;SDS011;37739;50.350;7.578;2022-08-05T02:19:32;6.53;;;5.97;;
47882;SDS011;37739;50.350;7.578;2022-08-05T02:24:27;7.27;;;6.43;;
47882;SDS011;37739;50.350;7.578;2022-08-05T02:27:00;6.70;;;5.87;;
47882;SDS011;37739;50.350;7.578;2022-08-05T02:29:27;8.57;;;7.50;;
47882;SDS011;37739;50.350;7.578;2022-08-05T02:31:58;7.73;;;7.03;;
47882;SDS011;37739;50.350;7.578;2022-08-05T02:34:25;5.37;;;4.87;;
47882;SDS011;37739;50.350;7.578;2022-08-05T02:36:55;8.87;;;7.43;;
47882;SDS011;37739;50.350;7.578;2022-08-05T02:39:23;7.93;;;7.00;;
47882;SDS011;37739;50.350;7.578;2022-08-05T02:41:58;7.17;;;6.23;;
47882;SDS011;37739;50.350;7.578;2022-08-05T02:44:27;8.40;;;7.70;;
47882;SDS011;37739;50.350;7.578;2022-08-05T02:46:55;7.13;;;6.43;;
47882;SDS011;37739;50.350;7.578;2022-08-05T02:49:22;9.90;;;8.90;;
47882;SDS011;37739;50.350;7.578;2022-08-05T02:51:52;10.13;;;7.20;;
47882;SDS011;37739;50.350;7.578;2022-08-05T02:54:19;7.70;;;6.67;;
47882;SDS011;37739;50.350;7.578;2022-08-05T02:56:45;12.77;;;8.37;;
47882;SDS011;37739;50.350;7.578;2022-08-05T02:59:14;7.57;;;6.67;;
47882;SDS011;37739;50.350;7.578;2022-08-05T03:01:42;11.00;;;8.57;;
47882;SDS011;37739;50.350;7.578;2022-08-05T03:04:16;7.70;;;7.00;;
47882;SDS011;37739;50.350;7.578;2022-08-05T03:06:45;9.37;;;7.60;;
47882;SDS011;37739;50.350;7.578;2022-08-05T03:09:11;8.90;;;7.53;;
47882;SDS011;37739;50.350;7.578;2022-08-05T03:11:40;9.73;;;8.73;;
47882;SDS011;37739;50.350;7.578;2022-08-05T03:14:07;12.07;;;10.57;;
47882;SDS011;37739;50.350;7.578;2022-08-05T03:16:35;11.60;;;8.87;;
47882;SDS011;37739;50.350;7.578;2022-08-05T03:19:01;8.27;;;7.47;;
47882;SDS011;37739;50.350;7.578;2022-08-05T03:21:30;10.47;;;9.50;;
47882;SDS011;37739;50.350;7.578;2022-08-05T03:24:00;10.53;;;8.30;;
47882;SDS011;37739;50.350;7.578;2022-08-05T03:26:26;9.67;;;8.77;;
47882;SDS011;37739;50.350;7.578;2022-08-05T03:28:52;8.63;;;7.70;;
47882;SDS011;37739;50.350;7.578;2022-08-05T03:31:18;9.97;;;9.00;;
47882;SDS011;37739;50.350;7.578;2022-08-05T03:33:44;10.27;;;7.87;;
47882;SDS011;37739;50.350;7.578;2022-08-05T03:36:11;8.97;;;8.00;;
47882;SDS011;37739;50.350;7.578;2022-08-05T03:38:40;8.40;;;7.50;;
47882;SDS011;37739;50.350;7.578;2022-08-05T03:41:09;7.60;;;6.90;;
47882;SDS011;37739;50.350;7.578;2022-08-05T03:43:34;6.60;;;6.00;;
47882;SDS011;37739;50.350;7.578;2022-08-05T03:46:00;8.10;;;7.27;;
47882;SDS011;37739;50.350;7.578;2022-08-05T03:48:26;9.23;;;8.37;;
47882;SDS011;37739;50.350;7.578;2022-08-05T03:51:02;6.70;;;6.00;;
47882;SDS011;37739;50.350;7.578;2022-08-05T03:56:25;9.30;;;8.57;;
47882;SDS011;37739;50.350;7.578;2022-08-05T03:58:59;8.53;;;7.63;;
47882;SDS011;37739;50.350;7.578;2022-08-05T04:01:26;8.60;;;7.70;;
47882;SDS011;37739;50.350;7.578;2022-08-05T04:03:57;8.13;;;7.23;;
47882;SDS011;37739;50.350;7.578;2022-08-05T04:06:24;7.93;;;7.20;;
47882;SDS011;37739;50.350;7.578;2022-08-05T04:08:50;7.60;;;6.90;;
47882;SDS011;37739;50.350;7.578;2022-08-05T04:11:20;9.03;;;8.23;;
47882;SDS011;37739;50.350;7.578;2022-08-05T04:13:47;8.77;;;7.77;;
47882;SDS011;37739;50.350;7.578;2022-08-05T04:16:16;8.40;;;7.50;;
47882;SDS011;37739;50.350;7.578;2022-08-05T04:18:44;8.10;;;6.97;;
47882;SDS011;37739;50.350;7.578;2022-08-05T04:21:10;6.47;;;5.77;;
47882;SDS011;37739;50.350;7.578;2022-08-05T04:23:38;9.10;;;7.90;;
47882;SDS011;37739;50.350;7.578;2022-08-05T04:26:04;8.00;;;7.37;;
47882;SDS011;37739;50.350;7.578;2022-08-05T04:28:29;8.20;;;7.50;;
47882;SDS011;37739;50.350;7.578;2022-08-05T04:30:58;6.57;;;5.97;;
47882;SDS011;37739;50.350;7.578;2022-08-05T04:33:24;7.10;;;6.40;;
47882;SDS011;37739;50.350;7.578;2022-08-05T04:35:49;6.30;;;5.80;;
47882;SDS011;37739;50.350;7.578;2022-08-05T04:38:16;7.43;;;6.67;;
47882;SDS011;37739;50.350;7.578;2022-08-05T04:40:42;6.77;;;6.17;;
47882;SDS011;37739;50.350;7.578;2022-08-05T04:43:09;6.77;;;6.17;;
47882;SDS011;37739;50.350;7.578;2022-08-05T04:45:37;7.23;;;6.50;;
47882;SDS011;37739;50.350;7.578;2022-08-05T04:48:08;7.30;;;6.57;;
47882;SDS011;37739;50.350;7.578;2022-08-05T04:50:44;7.33;;;6.50;;
47882;SDS011;37739;50.350;7.578;2022-08-05T04:53:13;8.70;;;7.63;;
47882;SDS011;37739;50.350;7.578;2022-08-05T04:55:40;8.43;;;7.50;;
47882;SDS011;37739;50.350;7.578;2022-08-05T04:58:07;7.67;;;6.97;;
47882;SDS011;37739;50.350;7.578;2022-08-05T05:00:38;10.13;;;9.17;;
47882;SDS011;37739;50.350;7.578;2022-08-05T05:03:05;9.50;;;8.60;;
47882;SDS011;37739;50.350;7.578;2022-08-05T05:05:34;8.33;;;7.63;;
47882;SDS011;37739;50.350;7.578;2022-08-05T05:08:03;9.00;;;8.10;;
47882;SDS011;37739;50.350;7.578;2022-08-05T05:10:31;9.00;;;8.20;;
47882;SDS011;37739;50.350;7.578;2022-08-05T05:13:01;9.90;;;9.10;;
47882;SDS011;37739;50.350;7.578;2022-08-05T05:15:26;10.90;;;9.80;;
47882;SDS011;37739;50.350;7.578;2022-08-05T05:17:52;9.63;;;8.83;;
47882;SDS011;37739;50.350;7.578;2022-08-05T05:20:19;8.50;;;7.77;;
47882;SDS011;37739;50.350;7.578;2022-08-05T05:22:48;8.70;;;7.90;;
47882;SDS011;37739;50.350;7.578;2022-08-05T05:25:15;8.60;;;7.90;;
47882;SDS011;37739;50.350;7.578;2022-08-05T05:27:43;8.93;;;8.17;;
47882;SDS011;37739;50.350;7.578;2022-08-05T05:30:16;10.17;;;9.20;;
47882;SDS011;37739;50.350;7.578;2022-08-05T05:32:42;8.93;;;8.17;;
47882;SDS011;37739;50.350;7.578;2022-08-05T05:35:15;9.47;;;8.57;;
47882;SDS011;37739;50.350;7.578;2022-08-05T05:37:49;8.97;;;8.17;;
47882;SDS011;37739;50.350;7.578;2022-08-05T05:40:17;10.80;;;9.87;;
47882;SDS011;37739;50.350;7.578;2022-08-05T05:42:43;8.27;;;7.50;;
47882;SDS011;37739;50.350;7.578;2022-08-05T05:45:10;7.20;;;6.60;;
47882;SDS011;37739;50.350;7.578;2022-08-05T05:47:40;9.07;;;6.80;;
47882;SDS011;37739;50.350;7.578;2022-08-05T05:50:10;7.10;;;6.50;;
47882;SDS011;37739;50.350;7.578;2022-08-05T05:52:40;6.63;;;5.93;;
47882;SDS011;37739;50.350;7.578;2022-08-05T05:55:08;5.23;;;4.73;;
47882;SDS011;37739;50.350;7.578;2022-08-05T05:57:35;9.10;;;6.60;;
47882;SDS011;37739;50.350;7.578;2022-08-05T06:00:07;6.50;;;5.90;;
47882;SDS011;37739;50.350;7.578;2022-08-05T06:02:38;6.70;;;6.20;;
47882;SDS011;37739;50.350;7.578;2022-08-05T06:05:07;6.13;;;5.53;;
47882;SDS011;37739;50.350;7.578;2022-08-05T06:07:33;7.30;;;5.40;;
47882;SDS011;37739;50.350;7.578;2022-08-05T06:09:58;5.20;;;4.57;;
47882;SDS011;37739;50.350;7.578;2022-08-05T06:12:24;5.63;;;5.13;;
47882;SDS011;37739;50.350;7.578;2022-08-05T06:14:51;5.13;;;4.63;;
47882;SDS011;37739;50.350;7.578;2022-08-05T06:17:17;4.90;;;4.60;;
47882;SDS011;37739;50.350;7.578;2022-08-05T06:19:45;5.10;;;4.60;;
47882;SDS011;37739;50.350;7.578;2022-08-05T06:22:20;4.27;;;3.90;;
47882;SDS011;37739;50.350;7.578;2022-08-05T06:24:46;5.37;;;4.80;;
47882;SDS011;37739;50.350;7.578;2022-08-05T06:27:12;4.30;;;3.90;;
47882;SDS011;37739;50.350;7.578;2022-08-05T06:29:39;4.40;;;3.80;;
47882;SDS011;37739;50.350;7.578;2022-08-05T06:32:05;7.03;;;4.53;;
47882;SDS011;37739;50.350;7.578;2022-08-05T06:34:30;4.30;;;4.00;;
47882;SDS011;37739;50.350;7.578;2022-08-05T06:36:56;4.93;;;4.27;;
47882;SDS011;37739;50.350;7.578;2022-08-05T06:39:23;4.53;;;4.13;;
47882;SDS011;37739;50.350;7.578;2022-08-05T06:41:49;4.43;;;4.07;;
47882;SDS011;37739;50.350;7.578;2022-08-05T06:44:17;4.27;;;3.87;;
47882;SDS011;37739;50.350;7.578;2022-08-05T06:46:45;4.73;;;3.60;;
47882;SDS011;37739;50.350;7.578;2022-08-05T06:49:11;5.13;;;4.73;;
47882;SDS011;37739;50.350;7.578;2022-08-05T06:51:38;4.13;;;3.83;;
47882;SDS011;37739;50.350;7.578;2022-08-05T06:54:06;4.77;;;3.60;;
47882;SDS011;37739;50.350;7.578;2022-08-05T06:56:31;5.20;;;4.80;;
47882;SDS011;37739;50.350;7.578;2022-08-05T06:58:57;5.27;;;4.77;;
47882;SDS011;37739;50.350;7.578;2022-08-05T07:01:22;5.60;;;5.20;;
47882;SDS011;37739;50.350;7.578;2022-08-05T07:03:48;6.03;;;5.53;;
47882;SDS011;37739;50.350;7.578;2022-08-05T07:06:19;6.93;;;6.23;;
47882;SDS011;37739;50.350;7.578;2022-08-05T07:08:44;6.93;;;6.20;;
47882;SDS011;37739;50.350;7.578;2022-08-05T07:11:10;6.40;;;5.80;;
47882;SDS011;37739;50.350;7.578;2022-08-05T07:13:38;8.40;;;7.63;;
47882;SDS011;37739;50.350;7.578;2022-08-05T07:16:26;6.30;;;5.80;;
47882;SDS011;37739;50.350;7.578;2022-08-05T07:19:11;8.30;;;7.40;;
47882;SDS011;37739;50.350;7.578;2022-08-05T07:21:36;7.90;;;7.10;;
47882;SDS011;37739;50.350;7.578;2022-08-05T07:24:02;8.03;;;7.33;;
47882;SDS011;37739;50.350;7.578;2022-08-05T07:26:27;6.57;;;5.97;;
47882;SDS011;37739;50.350;7.578;2022-08-05T07:28:53;6.93;;;6.20;;
47882;SDS011;37739;50.350;7.578;2022-08-05T07:31:18;7.50;;;6.80;;
47882;SDS011;37739;50.350;7.578;2022-08-05T07:33:46;8.77;;;6.70;;
47882;SDS011;37739;50.350;7.578;2022-08-05T07:36:13;8.73;;;7.93;;
47882;SDS011;37739;50.350;7.578;2022-08-05T07:38:39;9.40;;;8.60;;
47882;SDS011;37739;50.350;7.578;2022-08-05T07:41:08;8.40;;;7.10;;
47882;SDS011;37739;50.350;7.578;2022-08-05T07:43:42;10.53;;;9.63;;
47882;SDS011;37739;50.350;7.578;2022-08-05T07:46:07;9.83;;;8.93;;
47882;SDS011;37739;50.350;7.578;2022-08-05T07:48:32;9.43;;;8.47;;
47882;SDS011;37739;50.350;7.578;2022-08-05T07:51:00;11.30;;;9.30;;
47882;SDS011;37739;50.350;7.578;2022-08-05T07:53:25;9.17;;;8.47;;
47882;SDS011;37739;50.350;7.578;2022-08-05T07:55:51;8.40;;;7.67;;
47882;SDS011;37739;50.350;7.578;2022-08-05T07:58:16;8.67;;;7.80;;
47882;SDS011;37739;50.350;7.578;2022-08-05T08:00:42;8.37;;;7.57;;
47882;SDS011;37739;50.350;7.578;2022-08-05T08:03:08;12.90;;;11.70;;
47882;SDS011;37739;50.350;7.578;2022-08-05T08:05:37;11.30;;;9.83;;
47882;SDS011;37739;50.350;7.578;2022-08-05T08:08:11;7.40;;;6.70;;
47882;SDS011;37739;50.350;7.578;2022-08-05T08:10:41;9.87;;;8.97;;
47882;SDS011;37739;50.350;7.578;2022-08-05T08:13:09;9.77;;;8.97;;
47882;SDS011;37739;50.350;7.578;2022-08-05T08:15:39;6.90;;;6.30;;
47882;SDS011;37739;50.350;7.578;2022-08-05T08:18:07;6.70;;;6.10;;
47882;SDS011;37739;50.350;7.578;2022-08-05T08:20:32;5.63;;;5.13;;
47882;SDS011;37739;50.350;7.578;2022-08-05T08:22:58;6.60;;;6.10;;
47882;SDS011;37739;50.350;7.578;2022-08-05T08:25:25;9.00;;;8.10;;
47882;SDS011;37739;50.350;7.578;2022-08-05T08:27:52;7.87;;;7.07;;
47882;SDS011;37739;50.350;7.578;2022-08-05T08:30:20;11.87;;;9.10;;
47882;SDS011;37739;50.350;7.578;2022-08-05T08:32:46;6.97;;;6.30;;
47882;SDS011;37739;50.350;7.578;2022-08-05T08:35:11;6.87;;;6.27;;
47882;SDS011;37739;50.350;7.578;2022-08-05T08:37:39;9.77;;;8.97;;
47882;SDS011;37739;50.350;7.578;2022-08-05T08:40:09;13.30;;;12.10;;
47882;SDS011;37739;50.350;7.578;2022-08-05T08:42:35;11.03;;;10.03;;
47882;SDS011;37739;50.350;7.578;2022-08-05T08:45:03;7.13;;;6.60;;
47882;SDS011;37739;50.350;7.578;2022-08-05T08:47:31;9.90;;;8.90;;
47882;SDS011;37739;50.350;7.578;2022-08-05T08:49:59;10.10;;;9.10;;
47882;SDS011;37739;50.350;7.578;2022-08-05T08:52:30;10.70;;;9.80;;
47882;SDS011;37739;50.350;7.578;2022-08-05T08:54:57;11.13;;;10.23;;
47882;SDS011;37739;50.350;7.578;2022-08-05T08:57:25;12.17;;;11.17;;
47882;SDS011;37739;50.350;7.578;2022-08-05T08:59:51;10.10;;;9.20;;
47882;SDS011;37739;50.350;7.578;2022-08-05T09:02:21;14.10;;;12.90;;
47882;SDS011;37739;50.350;7.578;2022-08-05T09:04:52;14.13;;;12.90;;
47882;SDS011;37739;50.350;7.578;2022-08-05T09:07:17;13.40;;;12.23;;
47882;SDS011;37739;50.350;7.578;2022-08-05T09:09:43;13.83;;;12.60;;
47882;SDS011;37739;50.350;7.578;2022-08-05T09:12:08;9.73;;;8.90;;
47882;SDS011;37739;50.350;7.578;2022-08-05T09:14:34;13.40;;;12.10;;
47882;SDS011;37739;50.350;7.578;2022-08-05T09:17:01;11.50;;;10.63;;
47882;SDS011;37739;50.350;7.578;2022-08-05T09:19:28;12.67;;;11.37;;
47882;SDS011;37739;50.350;7.578;2022-08-05T09:21:55;14.00;;;13.00;;
47882;SDS011;37739;50.350;7.578;2022-08-05T09:24:21;10.07;;;9.37;;
47882;SDS011;37739;50.350;7.578;2022-08-05T09:26:51;11.30;;;10.33;;
47882;SDS011;37739;50.350;7.578;2022-08-05T09:29:20;11.93;;;11.03;;
47882;SDS011;37739;50.350;7.578;2022-08-05T09:32:05;10.47;;;9.37;;
47882;SDS011;37739;50.350;7.578;2022-08-05T09:37:22;12.83;;;11.93;;
47882;SDS011;37739;50.350;7.578;2022-08-05T09:39:51;12.63;;;11.73;;
47882;SDS011;37739;50.350;7.578;2022-08-05T09:42:18;14.00;;;12.60;;
47882;SDS011;37739;50.350;7.578;2022-08-05T09:44:50;12.00;;;11.00;;
47882;SDS011;37739;50.350;7.578;2022-08-05T09:47:22;12.40;;;11.43;;
47882;SDS011;37739;50.350;7.578;2022-08-05T09:49:52;10.83;;;10.03;;
47882;SDS011;37739;50.350;7.578;2022-08-05T09:55:03;10.87;;;10.10;;
47882;SDS011;37739;50.350;7.578;2022-08-05T09:57:34;11.43;;;10.63;;
47882;SDS011;37739;50.350;7.578;2022-08-05T10:00:04;10.40;;;9.60;;
47882;SDS011;37739;50.350;7.578;2022-08-05T10:02:39;10.43;;;9.63;;
47882;SDS011;37739;50.350;7.578;2022-08-05T10:10:11;10.43;;;9.57;;
47882;SDS011;37739;50.350;7.578;2022-08-05T10:12:40;11.97;;;11.07;;
47882;SDS011;37739;50.350;7.578;2022-08-05T10:15:23;10.67;;;9.97;;
47882;SDS011;37739;50.350;7.578;2022-08-05T10:18:01;11.57;;;10.67;;
47882;SDS011;37739;50.350;7.578;2022-08-05T10:20:45;10.10;;;9.30;;
47882;SDS011;37739;50.350;7.578;2022-08-05T10:23:29;9.70;;;9.00;;
47882;SDS011;37739;50.350;7.578;2022-08-05T10:25:55;9.43;;;8.73;;
47882;SDS011;37739;50.350;7.578;2022-08-05T10:28:25;9.23;;;8.53;;
47882;SDS011;37739;50.350;7.578;2022-08-05T10:30:53;9.97;;;9.27;;
47882;SDS011;37739;50.350;7.578;2022-08-05T10:33:19;9.30;;;8.60;;
47882;SDS011;37739;50.350;7.578;2022-08-05T10:35:47;10.33;;;9.63;;
47882;SDS011;37739;50.350;7.578;2022-08-05T10:38:17;8.83;;;8.23;;
47882;SDS011;37739;50.350;7.578;2022-08-05T10:46:03;8.70;;;8.10;;
47882;SDS011;37739;50.350;7.578;2022-08-05T10:48:34;9.03;;;8.43;;
47882;SDS011;37739;50.350;7.578;2022-08-05T10:51:28;9.37;;;8.67;;
47882;SDS011;37739;50.350;7.578;2022-08-05T10:54:08;9.60;;;8.90;;
47882;SDS011;37739;50.350;7.578;2022-08-05T10:56:44;7.90;;;7.23;;
47882;SDS011;37739;50.350;7.578;2022-08-05T10:59:17;9.87;;;9.13;;
47882;SDS011;37739;50.350;7.578;2022-08-05T11:01:49;10.00;;;9.00;;
47882;SDS011;37739;50.350;7.578;2022-08-05T11:04:42;11.57;;;10.67;;
47882;SDS011;37739;50.350;7.578;2022-08-05T11:07:14;9.40;;;8.60;;
47882;SDS011;37739;50.350;7.578;2022-08-05T11:14:49;8.73;;;8.07;;
47882;SDS011;37739;50.350;7.578;2022-08-05T11:17:33;9.87;;;9.13;;
47882;SDS011;37739;50.350;7.578;2022-08-05T11:20:03;11.80;;;10.77;;
47882;SDS011;37739;50.350;7.578;2022-08-05T11:22:46;11.23;;;10.30;;
47882;SDS011;37739;50.350;7.578;2022-08-05T11:25:29;9.13;;;8.43;;
47882;SDS011;37739;50.350;7.578;2022-08-05T11:41:24;13.53;;;12.43;;
47882;SDS011;37739;50.350;7.578;2022-08-05T11:43:53;19.47;;;17.43;;
47882;SDS011;37739;50.350;7.578;2022-08-05T11:46:29;16.60;;;15.33;;
47882;SDS011;37739;50.350;7.578;2022-08-05T11:48:56;21.07;;;19.40;;
47882;SDS011;37739;50.350;7.578;2022-08-05T11:51:24;23.40;;;21.50;;
47882;SDS011;37739;50.350;7.578;2022-08-05T11:53:53;26.97;;;24.80;;
47882;SDS011;37739;50.350;7.578;2022-08-05T11:56:22;29.63;;;27.13;;
47882;SDS011;37739;50.350;7.578;2022-08-05T11:58:50;29.30;;;26.90;;
47882;SDS011;37739;50.350;7.578;2022-08-05T12:01:17;30.10;;;27.60;;
47882;SDS011;37739;50.350;7.578;2022-08-05T12:03:45;33.97;;;31.10;;
47882;SDS011;37739;50.350;7.578;2022-08-05T12:06:13;36.57;;;33.47;;
47882;SDS011;37739;50.350;7.578;2022-08-05T12:08:51;41.97;;;38.30;;
47882;SDS011;37739;50.350;7.578;2022-08-05T12:11:21;41.67;;;38.17;;
47882;SDS011;37739;50.350;7.578;2022-08-05T12:14:06;45.17;;;41.33;;
47882;SDS011;37739;50.350;7.578;2022-08-05T12:16:37;44.20;;;40.40;;
47882;SDS011;37739;50.350;7.578;2022-08-05T12:19:06;47.27;;;43.07;;
47882;SDS011;37739;50.350;7.578;2022-08-05T12:21:35;45.00;;;41.17;;
47882;SDS011;37739;50.350;7.578;2022-08-05T12:24:16;41.23;;;37.53;;
47882;SDS011;37739;50.350;7.578;2022-08-05T12:26:44;41.03;;;37.53;;
47882;SDS011;37739;50.350;7.578;2022-08-05T12:31:47;36.63;;;33.43;;
47882;SDS011;37739;50.350;7.578;2022-08-05T12:34:18;34.30;;;31.50;;
47882;SDS011;37739;50.350;7.578;2022-08-05T12:36:47;31.50;;;29.00;;
47882;SDS011;37739;50.350;7.578;2022-08-05T12:39:18;32.53;;;29.90;;
47882;SDS011;37739;50.350;7.578;2022-08-05T12:41:45;30.10;;;27.60;;
47882;SDS011;37739;50.350;7.578;2022-08-05T12:44:13;25.47;;;23.20;;
47882;SDS011;37739;50.350;7.578;2022-08-05T12:46:42;23.60;;;21.80;;
47882;SDS011;37739;50.350;7.578;2022-08-05T12:49:18;21.47;;;20.03;;
47882;SDS011;37739;50.350;7.578;2022-08-05T12:51:50;18.47;;;17.27;;
47882;SDS011;37739;50.350;7.578;2022-08-05T12:54:22;14.20;;;13.30;;
47882;SDS011;37739;50.350;7.578;2022-08-05T12:56:50;14.13;;;13.03;;
47882;SDS011;37739;50.350;7.578;2022-08-05T12:59:18;13.20;;;12.20;;
47882;SDS011;37739;50.350;7.578;2022-08-05T13:01:52;12.30;;;11.30;;
47882;SDS011;37739;50.350;7.578;2022-08-05T13:04:19;10.00;;;9.20;;
47882;SDS011;37739;50.350;7.578;2022-08-05T13:06:47;9.77;;;9.17;;
47882;SDS011;37739;50.350;7.578;2022-08-05T13:09:13;8.60;;;8.00;;
47882;SDS011;37739;50.350;7.578;2022-08-05T13:11:40;10.10;;;9.20;;
47882;SDS011;37739;50.350;7.578;2022-08-05T13:14:16;8.43;;;7.83;;
47882;SDS011;37739;50.350;7.578;2022-08-05T13:16:46;7.27;;;6.87;;
47882;SDS011;37739;50.350;7.578;2022-08-05T13:19:19;8.63;;;7.90;;
47882;SDS011;37739;50.350;7.578;2022-08-05T13:21:46;6.00;;;5.53;;
47882;SDS011;37739;50.350;7.578;2022-08-05T13:24:15;5.07;;;4.67;;
47882;SDS011;37739;50.350;7.578;2022-08-05T13:26:42;5.20;;;4.80;;
47882;SDS011;37739;50.350;7.578;2022-08-05T13:29:09;4.30;;;4.00;;
47882;SDS011;37739;50.350;7.578;2022-08-05T13:31:34;3.80;;;3.50;;
47882;SDS011;37739;50.350;7.578;2022-08-05T13:33:59;3.47;;;2.60;;
47882;SDS011;37739;50.350;7.578;2022-08-05T13:36:25;3.47;;;3.10;;
47882;SDS011;37739;50.350;7.578;2022-08-05T13:38:53;3.20;;;2.90;;
47882;SDS011;37739;50.350;7.578;2022-08-05T13:41:18;2.70;;;2.50;;
47882;SDS011;37739;50.350;7.578;2022-08-05T13:43:43;2.53;;;2.33;;
47882;SDS011;37739;50.350;7.578;2022-08-05T13:46:09;2.30;;;2.10;;
47882;SDS011;37739;50.350;7.578;2022-08-05T13:48:35;1.83;;;1.53;;
47882;SDS011;37739;50.350;7.578;2022-08-05T13:51:05;2.03;;;1.90;;
47882;SDS011;37739;50.350;7.578;2022-08-05T13:53:34;3.53;;;1.97;;
47882;SDS011;37739;50.350;7.578;2022-08-05T13:56:02;2.37;;;1.77;;
47882;SDS011;37739;50.350;7.578;2022-08-05T13:58:30;2.07;;;1.90;;
47882;SDS011;37739;50.350;7.578;2022-08-05T14:00:58;1.47;;;1.33;;
47882;SDS011;37739;50.350;7.578;2022-08-05T14:03:23;1.87;;;1.60;;
47882;SDS011;37739;50.350;7.578;2022-08-05T14:05:51;2.20;;;1.50;;
47882;SDS011;37739;50.350;7.578;2022-08-05T14:08:16;1.93;;;1.70;;
47882;SDS011;37739;50.350;7.578;2022-08-05T14:10:42;1.57;;;1.47;;
47882;SDS011;37739;50.350;7.578;2022-08-05T14:13:07;3.30;;;1.70;;
47882;SDS011;37739;50.350;7.578;2022-08-05T14:15:33;1.47;;;1.37;;
47882;SDS011;37739;50.350;7.578;2022-08-05T14:17:59;1.70;;;1.37;;
47882;SDS011;37739;50.350;7.578;2022-08-05T14:20:25;4.40;;;1.47;;
47882;SDS011;37739;50.350;7.578;2022-08-05T14:22:52;2.90;;;1.50;;
47882;SDS011;37739;50.350;7.578;2022-08-05T14:25:20;2.17;;;1.63;;
47882;SDS011;37739;50.350;7.578;2022-08-05T14:27:51;2.30;;;1.73;;
47882;SDS011;37739;50.350;7.578;2022-08-05T14:30:19;2.30;;;1.70;;
47882;SDS011;37739;50.350;7.578;2022-08-05T14:32:45;2.60;;;1.60;;
47882;SDS011;37739;50.350;7.578;2022-08-05T14:35:12;3.00;;;1.60;;
47882;SDS011;37739;50.350;7.578;2022-08-05T14:37:40;1.87;;;1.27;;
47882;SDS011;37739;50.350;7.578;2022-08-05T14:40:06;2.43;;;1.77;;
47882;SDS011;37739;50.350;7.578;2022-08-05T14:42:31;2.90;;;1.60;;
47882;SDS011;37739;50.350;7.578;2022-08-05T14:44:57;1.90;;;1.30;;
47882;SDS011;37739;50.350;7.578;2022-08-05T14:47:25;1.43;;;1.30;;
47882;SDS011;37739;50.350;7.578;2022-08-05T14:49:53;2.03;;;1.30;;
47882;SDS011;37739;50.350;7.578;2022-08-05T14:52:18;4.50;;;1.30;;
47882;SDS011;37739;50.350;7.578;2022-08-05T14:54:46;2.43;;;1.27;;
47882;SDS011;37739;50.350;7.578;2022-08-05T14:57:16;2.57;;;1.30;;
47882;SDS011;37739;50.350;7.578;2022-08-05T14:59:41;2.20;;;1.27;;
47882;SDS011;37739;50.350;7.578;2022-08-05T15:02:07;3.73;;;1.40;;
47882;SDS011;37739;50.350;7.578;2022-08-05T15:04:32;1.50;;;1.30;;
47882;SDS011;37739;50.350;7.578;2022-08-05T15:06:57;2.87;;;1.40;;
47882;SDS011;37739;50.350;7.578;2022-08-05T15:09:22;1.30;;;1.10;;
47882;SDS011;37739;50.350;7.578;2022-08-05T15:11:48;7.60;;;1.30;;
47882;SDS011;37739;50.350;7.578;2022-08-05T15:14:13;1.70;;;1.27;;
47882;SDS011;37739;50.350;7.578;2022-08-05T15:16:39;1.80;;;1.13;;
47882;SDS011;37739;50.350;7.578;2022-08-05T15:19:07;1.30;;;1.00;;
47882;SDS011;37739;50.350;7.578;2022-08-05T15:21:32;2.60;;;1.10;;
47882;SDS011;37739;50.350;7.578;2022-08-05T15:23:58;2.13;;;1.47;;
47882;SDS011;37739;50.350;7.578;2022-08-05T15:26:26;2.43;;;1.40;;
47882;SDS011;37739;50.350;7.578;2022-08-05T15:28:51;1.60;;;1.07;;
47882;SDS011;37739;50.350;7.578;2022-08-05T15:31:16;1.97;;;1.40;;
47882;SDS011;37739;50.350;7.578;2022-08-05T15:33:44;3.47;;;2.10;;
47882;SDS011;37739;50.350;7.578;2022-08-05T15:36:09;2.27;;;1.50;;
47882;SDS011;37739;50.350;7.578;2022-08-05T15:38:35;2.03;;;1.70;;
47882;SDS011;37739;50.350;7.578;2022-08-05T15:41:00;1.63;;;1.40;;
47882;SDS011;37739;50.350;7.578;2022-08-05T15:43:26;5.17;;;2.20;;